Kentland, Indiana
Current Conditions -  °F | °C
As of 2:15 PM on Monday 24 Nov 2014 (Local Time) from KRZL Reporting Station
Overcast Overcast  
Wind Chill: 20°   Ceiling: 1600
Heat Index: 34°   Visibility: 10mi
Dew Point: 32°   Wind: 29mph
Humidity: 93%   Direction: 240°WSW
Pressure: 29.57"   Gusts: 41mph
Location:  40.77°N, 87.45°W
Report Text: KRZL 242015Z AUTO 24025G36KT 10SM BKN016 OVC022 01/00 A2957 RMK AO2
Loading
Personal Weather Stations






























Interactive Weather Map New forecast layout! Learn more

10-Day Weather Forecast

Advertisements
Track Severe Weather on mobile